Time;durP1;ratioP1;P1;durP2;ratioP2;P2;SDS_P1;SDS_P2;PMS_P1;PMS_P2;Temp;Humidity;BMP_temperature;BMP_pressure;BME280_temperature;BME280_humidity;BME280_pressure;Samples;Min_cycle;Max_cycle;Signal;HPM_P1;HPM_P2
2022/05/30 00:00:38;;;;;;;1.50;1.10;;;11.50;98.20;;;;;;5047918;28;20471;-76
2022/05/30 00:03:05;;;;;;;1.50;1.10;;;11.40;98.20;;;;;;5033476;28;20485;-77
2022/05/30 00:05:32;;;;;;;1.50;1.10;;;11.40;98.20;;;;;;5054153;28;20498;-76
2022/05/30 00:08:00;;;;;;;1.50;1.10;;;11.40;98.20;;;;;;5028896;28;20486;-76
2022/05/30 00:10:27;;;;;;;1.50;1.10;;;11.30;98.20;;;;;;5053624;28;20458;-75
2022/05/30 00:12:56;;;;;;;1.50;1.07;;;11.30;98.20;;;;;;5030323;28;20474;-76
2022/05/30 00:15:23;;;;;;;1.50;1.10;;;11.30;98.20;;;;;;5047756;28;20586;-76
2022/05/30 00:17:54;;;;;;;1.50;1.10;;;11.30;98.20;;;;;;5053228;28;20462;-77
2022/05/30 00:20:21;;;;;;;1.50;1.10;;;11.30;98.20;;;;;;5047403;28;20464;-76
2022/05/30 00:22:48;;;;;;;1.50;1.10;;;11.30;98.20;;;;;;5036561;28;20528;-76
2022/05/30 00:25:15;;;;;;;1.50;1.20;;;11.30;98.20;;;;;;5050396;28;20494;-76
2022/05/30 00:27:43;;;;;;;1.50;1.10;;;11.30;98.20;;;;;;5059488;28;20846;-76
2022/05/30 00:30:13;;;;;;;1.43;1.10;;;11.40;98.20;;;;;;5066842;28;20466;-76
2022/05/30 00:32:40;;;;;;;1.50;1.10;;;11.30;98.20;;;;;;5032301;28;20493;-76
2022/05/30 00:35:08;;;;;;;1.50;1.10;;;11.30;98.20;;;;;;5066846;28;20485;-76
2022/05/30 00:37:35;;;;;;;1.50;1.10;;;11.40;98.20;;;;;;5035621;28;20486;-76
2022/05/30 00:40:02;;;;;;;1.50;1.10;;;11.30;98.20;;;;;;5048973;28;20474;-76
2022/05/30 00:42:29;;;;;;;1.50;1.10;;;11.30;98.20;;;;;;5034767;28;20486;-76
2022/05/30 00:44:55;;;;;;;1.50;1.10;;;11.30;98.20;;;;;;5063171;28;20501;-76
2022/05/30 00:47:25;;;;;;;1.50;1.10;;;11.30;98.20;;;;;;5056814;28;20468;-76
2022/05/30 00:49:53;;;;;;;2.33;1.97;;;11.30;98.20;;;;;;5047474;28;20535;-76
2022/05/30 00:52:26;;;;;;;1.50;1.10;;;11.30;98.20;;;;;;5034079;28;20545;-76
2022/05/30 00:54:58;;;;;;;1.50;1.10;;;11.40;98.20;;;;;;5043936;28;20482;-76
2022/05/30 00:57:26;;;;;;;1.47;1.10;;;11.40;98.20;;;;;;5035518;28;20875;-75
2022/05/30 00:59:56;;;;;;;1.50;1.10;;;11.40;98.20;;;;;;5067104;28;20492;-76
2022/05/30 01:02:26;;;;;;;1.50;1.10;;;11.40;98.20;;;;;;5045844;28;20490;-76
2022/05/30 01:07:40;;;;;;;1.50;1.10;;;11.40;98.20;;;;;;5061647;28;20460;-76
2022/05/30 01:10:09;;;;;;;1.50;1.10;;;11.40;98.20;;;;;;5054133;28;20461;-76
2022/05/30 01:12:39;;;;;;;1.50;1.10;;;11.40;98.20;;;;;;5023602;28;20471;-76
2022/05/30 01:15:08;;;;;;;1.50;1.10;;;11.40;98.20;;;;;;5050539;28;20485;-76
2022/05/30 01:17:45;;;;;;;1.50;1.10;;;11.40;98.20;;;;;;5039715;28;20494;-75
2022/05/30 01:20:28;;;;;;;1.50;1.10;;;11.40;98.20;;;;;;5051774;28;20458;-76
2022/05/30 01:23:14;;;;;;;1.50;1.10;;;11.40;98.20;;;;;;5036360;28;20537;-76
2022/05/30 01:26:12;;;;;;;1.50;1.10;;;11.40;98.20;;;;;;5053034;28;20494;-75
2022/05/30 01:28:46;;;;;;;1.50;1.00;;;11.40;98.20;;;;;;5028985;28;20477;-76
2022/05/30 01:31:15;;;;;;;1.50;1.10;;;11.40;98.20;;;;;;5044728;28;20488;-76
2022/05/30 01:33:42;;;;;;;1.50;1.10;;;11.40;98.20;;;;;;5037191;28;20458;-76
2022/05/30 01:36:09;;;;;;;1.50;1.10;;;11.30;98.20;;;;;;5055986;28;20492;-75
2022/05/30 01:38:36;;;;;;;1.47;1.10;;;11.30;98.20;;;;;;5052613;28;20465;-76
2022/05/30 01:41:03;;;;;;;1.50;1.10;;;11.30;98.20;;;;;;5036500;28;20451;-75
2022/05/30 01:43:31;;;;;;;1.50;1.10;;;11.30;98.20;;;;;;5035665;28;20455;-76
2022/05/30 01:46:04;;;;;;;1.50;1.10;;;11.30;98.20;;;;;;5051919;28;20478;-76
2022/05/30 01:48:31;;;;;;;1.50;1.10;;;11.30;98.20;;;;;;5035547;28;20497;-75
2022/05/30 01:50:59;;;;;;;1.50;1.10;;;11.30;98.20;;;;;;5044925;28;20467;-76
2022/05/30 01:53:27;;;;;;;1.47;1.10;;;11.30;98.20;;;;;;5045052;28;20470;-76
2022/05/30 01:55:54;;;;;;;1.50;1.10;;;11.30;98.20;;;;;;5057845;28;20480;-76
2022/05/30 01:58:21;;;;;;;1.50;1.10;;;11.20;98.20;;;;;;5047522;28;20473;-76
2022/05/30 02:00:48;;;;;;;1.50;1.10;;;11.20;98.20;;;;;;5057738;28;20469;-75
2022/05/30 02:03:16;;;;;;;1.50;1.10;;;11.20;98.20;;;;;;5051357;28;20457;-76
2022/05/30 02:05:43;;;;;;;1.50;1.10;;;11.20;98.20;;;;;;5067991;28;20488;-76
2022/05/30 02:08:10;;;;;;;1.50;1.20;;;11.20;98.20;;;;;;5059737;28;20463;-75
2022/05/30 02:10:38;;;;;;;1.50;1.10;;;11.20;98.20;;;;;;5052403;28;20465;-76
2022/05/30 02:13:07;;;;;;;1.50;1.20;;;11.20;98.20;;;;;;5059860;28;20466;-76
2022/05/30 02:17:00;;;;;;;1.50;1.10;;;11.20;98.20;;;;;;5069511;28;20492;-75
2022/05/30 02:18:22;;;;;;;1.50;1.10;;;11.20;98.20;;;;;;5028280;28;20481;-76
2022/05/30 02:20:49;;;;;;;1.50;1.10;;;11.20;98.20;;;;;;5050320;28;20515;-75
2022/05/30 02:23:17;;;;;;;1.50;1.10;;;11.20;98.20;;;;;;5033441;28;20467;-76
2022/05/30 02:25:44;;;;;;;1.50;1.10;;;11.20;98.20;;;;;;5052789;28;20481;-76
2022/05/30 02:28:11;;;;;;;1.50;1.07;;;11.20;98.20;;;;;;5024271;28;20539;-76
2022/05/30 02:30:38;;;;;;;1.50;1.10;;;11.20;98.20;;;;;;5048350;28;20921;-77
2022/05/30 02:38:35;;;;;;;1.50;1.10;;;11.20;98.20;;;;;;5042723;28;20454;-76
2022/05/30 02:41:02;;;;;;;1.50;1.20;;;11.20;98.20;;;;;;5035804;28;20467;-76
2022/05/30 02:43:29;;;;;;;1.50;1.10;;;11.20;98.20;;;;;;5046585;28;20474;-76
2022/05/30 02:45:56;;;;;;;1.50;1.10;;;11.20;98.20;;;;;;5038236;28;20489;-76
2022/05/30 02:48:23;;;;;;;1.50;1.10;;;11.20;98.20;;;;;;5042718;28;20459;-76
2022/05/30 02:50:51;;;;;;;1.50;1.00;;;11.20;98.20;;;;;;5037892;28;20466;-76
2022/05/30 02:53:17;;;;;;;1.50;1.20;;;11.20;98.20;;;;;;5044857;28;20469;-76
2022/05/30 02:55:44;;;;;;;1.50;1.10;;;11.20;98.20;;;;;;5065457;28;20477;-76
2022/05/30 02:58:11;;;;;;;1.50;1.23;;;11.20;98.20;;;;;;5034605;28;20477;-76
2022/05/30 03:00:38;;;;;;;1.50;1.10;;;11.20;98.20;;;;;;5052684;28;20471;-76
2022/05/30 03:03:05;;;;;;;1.50;1.10;;;11.20;98.20;;;;;;5035769;28;20917;-76
2022/05/30 03:05:32;;;;;;;1.50;1.10;;;11.20;98.20;;;;;;5047786;28;20490;-76
2022/05/30 03:08:03;;;;;;;1.50;1.10;;;11.20;98.20;;;;;;5030579;28;20479;-77
2022/05/30 03:10:30;;;;;;;1.50;1.10;;;11.20;98.20;;;;;;5047780;28;20462;-76
2022/05/30 03:12:57;;;;;;;1.50;1.10;;;11.20;98.20;;;;;;5021052;28;20872;-76
2022/05/30 03:15:25;;;;;;;1.50;1.10;;;11.10;98.20;;;;;;5049418;28;20469;-76
2022/05/30 03:17:52;;;;;;;1.50;1.10;;;11.20;98.20;;;;;;5040286;28;20493;-76
2022/05/30 03:20:19;;;;;;;1.50;1.10;;;11.20;98.20;;;;;;5066278;28;20469;-76
2022/05/30 03:22:45;;;;;;;1.50;1.10;;;11.20;98.20;;;;;;5063703;28;20543;-76
2022/05/30 03:25:14;;;;;;;1.50;1.00;;;11.10;98.20;;;;;;5067619;28;20868;-76
2022/05/30 03:27:40;;;;;;;1.50;1.20;;;11.10;98.20;;;;;;5040738;28;20493;-77
2022/05/30 03:30:08;;;;;;;1.50;1.10;;;11.10;98.20;;;;;;5057996;28;20464;-76
2022/05/30 03:32:35;;;;;;;1.50;1.10;;;11.20;98.20;;;;;;5026776;28;20487;-76
2022/05/30 03:35:04;;;;;;;1.50;1.20;;;11.10;98.20;;;;;;5060311;28;20500;-76
2022/05/30 03:37:32;;;;;;;1.47;1.10;;;11.10;98.20;;;;;;5034949;28;20483;-77
2022/05/30 03:39:59;;;;;;;1.40;1.10;;;11.10;98.20;;;;;;5054392;28;20841;-76
2022/05/30 03:42:27;;;;;;;1.50;1.10;;;11.10;98.20;;;;;;5032966;28;20504;-76
2022/05/30 03:44:53;;;;;;;1.50;1.10;;;11.10;98.20;;;;;;5060460;28;20481;-77
2022/05/30 03:47:20;;;;;;;1.50;1.10;;;11.10;98.20;;;;;;5035742;28;20482;-77
2022/05/30 03:49:47;;;;;;;1.50;1.10;;;11.10;98.20;;;;;;5048392;28;20975;-77
2022/05/30 03:52:14;;;;;;;1.50;1.20;;;11.10;98.20;;;;;;5033236;28;20486;-77
2022/05/30 03:54:41;;;;;;;1.50;1.10;;;11.10;98.20;;;;;;5048554;28;20454;-77
2022/05/30 03:57:08;;;;;;;1.50;1.10;;;11.10;98.20;;;;;;5045147;28;20887;-77
2022/05/30 03:59:36;;;;;;;1.50;1.10;;;11.10;98.20;;;;;;5061003;28;20473;-77
2022/05/30 04:02:03;;;;;;;1.50;1.03;;;11.10;98.20;;;;;;5039054;28;20479;-77
2022/05/30 04:04:30;;;;;;;1.50;1.03;;;11.10;98.20;;;;;;5051510;28;20463;-77
2022/05/30 04:06:57;;;;;;;1.50;1.10;;;11.10;98.20;;;;;;5035469;28;20475;-77
2022/05/30 04:09:24;;;;;;;1.50;1.20;;;11.10;98.20;;;;;;5041786;28;20465;-76
2022/05/30 04:11:50;;;;;;;1.50;1.10;;;11.20;98.20;;;;;;5033251;28;21112;-77
2022/05/30 04:14:17;;;;;;;1.43;1.10;;;11.10;98.20;;;;;;5044439;28;20492;-77
2022/05/30 04:16:45;;;;;;;1.50;1.10;;;11.10;98.20;;;;;;5052541;28;20478;-77
2022/05/30 04:19:12;;;;;;;1.50;1.10;;;11.10;98.20;;;;;;5048406;28;20830;-77
2022/05/30 04:21:39;;;;;;;1.50;1.10;;;11.10;98.20;;;;;;5052317;28;20501;-76
2022/05/30 04:24:07;;;;;;;1.50;1.10;;;11.10;98.20;;;;;;5061428;28;20461;-77
2022/05/30 04:26:34;;;;;;;1.50;1.13;;;11.20;98.20;;;;;;5044955;28;20566;-77
2022/05/30 04:29:00;;;;;;;1.50;1.10;;;11.20;98.20;;;;;;5050823;28;20465;-77
2022/05/30 04:31:27;;;;;;;1.50;1.10;;;11.20;98.20;;;;;;5066063;28;20468;-76
2022/05/30 04:33:55;;;;;;;1.50;1.10;;;11.20;98.20;;;;;;5052447;28;20473;-77
2022/05/30 04:36:22;;;;;;;1.50;1.10;;;11.20;98.20;;;;;;5050399;28;20485;-77
2022/05/30 04:38:49;;;;;;;1.50;1.10;;;11.20;98.20;;;;;;5045885;28;20536;-78
2022/05/30 04:41:16;;;;;;;1.50;1.00;;;11.30;98.20;;;;;;5039383;28;20493;-77
2022/05/30 04:43:42;;;;;;;1.50;1.13;;;11.30;98.20;;;;;;5043822;28;20458;-78
2022/05/30 04:46:12;;;;;;;1.50;1.10;;;11.30;98.20;;;;;;5053395;28;20503;-78
2022/05/30 04:48:39;;;;;;;1.47;1.07;;;11.40;98.20;;;;;;5050778;28;20477;-78
2022/05/30 04:51:08;;;;;;;1.50;1.10;;;11.40;98.20;;;;;;5042166;28;20462;-78
2022/05/30 04:53:34;;;;;;;1.50;1.10;;;11.40;98.20;;;;;;5055667;28;20457;-79
2022/05/30 04:56:01;;;;;;;1.50;1.10;;;11.40;98.20;;;;;;5050730;28;20493;-78
2022/05/30 04:58:30;;;;;;;1.50;1.10;;;11.40;98.20;;;;;;5059340;28;20489;-78
2022/05/30 05:00:58;;;;;;;1.50;1.10;;;11.50;98.20;;;;;;5040036;28;20862;-79
2022/05/30 05:03:25;;;;;;;1.50;1.07;;;11.60;98.20;;;;;;5052400;28;20492;-84
2022/05/30 05:05:51;;;;;;;1.50;1.10;;;11.60;98.20;;;;;;5065483;28;20497;-80
2022/05/30 05:08:37;;;;;;;1.50;1.00;;;11.70;98.20;;;;;;5047656;28;20806;-79
2022/05/30 05:11:17;;;;;;;1.50;1.03;;;11.80;98.20;;;;;;5061978;28;20823;-79
2022/05/30 05:13:45;;;;;;;1.50;1.10;;;11.80;98.20;;;;;;5059169;28;20582;-82
2022/05/30 05:16:12;;;;;;;1.50;1.10;;;11.90;98.20;;;;;;5043633;28;20482;-79
2022/05/30 05:18:39;;;;;;;1.50;1.10;;;12.00;98.20;;;;;;5060713;28;20485;-80
2022/05/30 05:21:06;;;;;;;1.50;1.00;;;12.00;98.20;;;;;;5045269;28;20461;-78
2022/05/30 05:23:34;;;;;;;1.50;1.10;;;12.10;98.20;;;;;;5051192;28;20938;-79
2022/05/30 05:26:06;;;;;;;1.50;1.07;;;12.10;98.20;;;;;;5054506;28;20481;-78
2022/05/30 05:28:35;;;;;;;1.50;1.07;;;12.10;98.20;;;;;;5046844;28;20481;-82
2022/05/30 05:31:02;;;;;;;1.50;1.10;;;12.20;98.20;;;;;;5042834;28;20477;-82
2022/05/30 05:33:29;;;;;;;1.50;1.10;;;12.20;98.20;;;;;;5050516;28;20850;-77
2022/05/30 05:35:57;;;;;;;1.50;1.00;;;12.20;98.20;;;;;;5052927;28;20482;-82
2022/05/30 05:38:23;;;;;;;1.50;1.00;;;12.20;98.20;;;;;;5035853;28;20567;-79
2022/05/30 05:40:52;;;;;;;1.50;1.10;;;12.20;98.20;;;;;;5045731;28;20534;-82
2022/05/30 05:43:20;;;;;;;1.50;1.10;;;12.20;98.20;;;;;;5055123;28;20468;-79
2022/05/30 05:45:47;;;;;;;1.50;1.00;;;12.20;98.20;;;;;;5063185;28;20519;-78
2022/05/30 05:48:15;;;;;;;1.50;1.07;;;12.20;98.20;;;;;;5043888;28;20494;-81
2022/05/30 05:50:43;;;;;;;1.50;1.00;;;12.20;98.20;;;;;;5059805;28;20458;-79
2022/05/30 05:53:11;;;;;;;1.50;1.07;;;12.20;98.20;;;;;;5029591;28;20584;-77
2022/05/30 05:55:38;;;;;;;1.50;1.00;;;12.20;98.20;;;;;;5059955;28;20485;-78
2022/05/30 05:58:07;;;;;;;1.50;1.00;;;12.20;98.20;;;;;;5042288;28;20478;-78
2022/05/30 06:00:34;;;;;;;1.50;1.00;;;12.30;98.20;;;;;;5061800;28;20503;-81
2022/05/30 06:03:01;;;;;;;1.50;1.10;;;12.30;98.20;;;;;;5036905;28;20893;-78
2022/05/30 06:05:30;;;;;;;1.50;1.00;;;12.40;98.20;;;;;;5057336;28;20483;-82
2022/05/30 06:07:59;;;;;;;1.50;1.00;;;12.50;98.20;;;;;;5035626;28;20482;-79
2022/05/30 06:10:26;;;;;;;1.50;1.10;;;12.60;98.20;;;;;;5061526;28;20474;-77
2022/05/30 06:12:53;;;;;;;1.50;1.00;;;12.60;97.50;;;;;;5022973;28;20495;-79
2022/05/30 06:15:22;;;;;;;1.50;1.00;;;12.60;96.90;;;;;;5059648;28;20572;-81
2022/05/30 06:17:49;;;;;;;1.50;1.00;;;12.60;96.60;;;;;;5032321;28;20570;-79
2022/05/30 06:20:18;;;;;;;1.50;1.00;;;12.70;96.90;;;;;;5065671;28;20461;-79
2022/05/30 06:22:45;;;;;;;1.50;0.97;;;12.70;96.80;;;;;;5035393;28;20581;-77
2022/05/30 06:25:12;;;;;;;1.50;1.10;;;12.80;96.90;;;;;;5057402;28;20494;-78
2022/05/30 06:27:39;;;;;;;1.50;1.00;;;12.90;97.20;;;;;;5034203;28;20578;-78
2022/05/30 06:30:07;;;;;;;1.50;1.00;;;13.00;96.70;;;;;;5057536;28;20498;-78
2022/05/30 06:32:35;;;;;;;1.50;1.00;;;13.10;96.60;;;;;;5025156;28;20878;-77
2022/05/30 06:35:01;;;;;;;1.50;1.00;;;13.20;96.00;;;;;;5058051;28;20481;-81
2022/05/30 06:37:28;;;;;;;1.50;1.00;;;13.30;95.50;;;;;;5055235;28;20465;-80
2022/05/30 06:39:55;;;;;;;1.50;1.00;;;13.20;94.80;;;;;;5051127;28;20462;-78
2022/05/30 06:42:22;;;;;;;1.50;1.00;;;13.10;94.40;;;;;;5032837;28;20487;-80
2022/05/30 06:44:49;;;;;;;1.50;1.00;;;13.10;94.30;;;;;;5053989;28;20485;-79
2022/05/30 06:47:16;;;;;;;1.50;1.00;;;13.20;94.80;;;;;;5052295;28;21099;-79
2022/05/30 06:49:44;;;;;;;1.50;1.00;;;13.20;94.90;;;;;;5052580;28;21145;-78
2022/05/30 06:52:12;;;;;;;1.50;1.10;;;13.30;94.90;;;;;;5040010;28;20517;-82
2022/05/30 06:54:39;;;;;;;1.50;1.00;;;13.40;94.50;;;;;;5053873;28;20952;-78
2022/05/30 06:59:51;;;;;;;1.50;1.00;;;13.50;93.10;;;;;;5055028;28;20462;-77
2022/05/30 07:02:18;;;;;;;1.50;0.90;;;13.60;94.00;;;;;;5038588;28;20633;-79
2022/05/30 07:04:47;;;;;;;1.50;0.90;;;13.70;94.00;;;;;;5045442;28;20670;-82
2022/05/30 07:07:14;;;;;;;1.50;1.00;;;13.90;94.10;;;;;;5038018;28;20541;-82
2022/05/30 07:09:41;;;;;;;1.50;1.00;;;14.00;93.60;;;;;;5054043;28;20465;-78
2022/05/30 07:12:09;;;;;;;1.50;0.90;;;14.10;92.90;;;;;;5030162;28;20538;-80
2022/05/30 07:14:38;;;;;;;1.50;1.00;;;14.20;93.60;;;;;;5053770;28;20469;-80
2022/05/30 07:17:06;;;;;;;1.50;1.00;;;14.30;93.00;;;;;;5036954;28;20490;-83
2022/05/30 07:19:33;;;;;;;1.50;1.00;;;14.40;92.50;;;;;;5050737;28;21316;-82
2022/05/30 07:22:02;;;;;;;1.50;1.00;;;14.50;92.30;;;;;;5049244;28;20483;-76
2022/05/30 07:24:29;;;;;;;1.60;1.30;;;14.60;91.10;;;;;;5057228;28;20550;-78
2022/05/30 07:26:56;;;;;;;1.50;1.00;;;14.70;91.40;;;;;;5036182;28;20533;-78
2022/05/30 07:29:26;;;;;;;1.50;0.97;;;14.80;91.40;;;;;;5053772;28;20965;-78
2022/05/30 07:31:57;;;;;;;1.50;1.00;;;14.90;90.30;;;;;;5037836;28;20554;-79
2022/05/30 07:34:25;;;;;;;1.50;0.90;;;15.00;90.10;;;;;;5051413;28;20468;-79
2022/05/30 07:36:51;;;;;;;1.50;1.00;;;15.10;90.30;;;;;;5041557;28;20497;-77
2022/05/30 07:39:20;;;;;;;1.50;1.00;;;15.20;88.60;;;;;;5041901;28;20513;-77
2022/05/30 07:41:47;;;;;;;1.50;1.00;;;15.30;89.20;;;;;;5034545;28;20594;-77
2022/05/30 07:44:14;;;;;;;1.47;0.90;;;15.40;88.10;;;;;;5046962;28;20654;-78
2022/05/30 07:46:43;;;;;;;1.50;1.00;;;15.60;88.00;;;;;;5062217;28;20489;-79
2022/05/30 07:49:10;;;;;;;1.50;1.00;;;15.60;86.40;;;;;;5061209;28;20567;-78
2022/05/30 07:51:37;;;;;;;1.50;1.00;;;15.70;86.90;;;;;;5037249;28;20490;-78
2022/05/30 07:54:04;;;;;;;1.50;0.90;;;15.90;85.20;;;;;;5054741;28;20818;-83
2022/05/30 07:56:33;;;;;;;1.50;0.90;;;15.90;86.20;;;;;;5034874;28;20531;-80
2022/05/30 07:59:00;;;;;;;1.50;0.97;;;16.10;84.80;;;;;;5043555;28;20505;-76
2022/05/30 08:01:27;;;;;;;1.50;0.90;;;16.30;86.80;;;;;;5045690;28;20485;-79
2022/05/30 08:03:55;;;;;;;1.50;0.90;;;16.40;84.50;;;;;;5051922;28;20464;-78
2022/05/30 08:06:24;;;;;;;1.50;1.00;;;16.60;82.60;;;;;;5037799;28;21036;-78
2022/05/30 08:08:52;;;;;;;1.50;0.90;;;16.80;83.80;;;;;;5035859;28;20977;-78
2022/05/30 08:11:19;;;;;;;1.50;1.00;;;16.90;81.50;;;;;;5040635;28;20550;-78
2022/05/30 08:13:47;;;;;;;1.50;0.90;;;17.00;81.90;;;;;;5051096;28;20462;-78
2022/05/30 08:16:14;;;;;;;1.50;0.97;;;17.00;82.30;;;;;;5037135;28;20494;-76
2022/05/30 08:18:41;;;;;;;1.50;0.90;;;17.10;81.30;;;;;;5054662;28;20489;-80
2022/05/30 08:21:08;;;;;;;1.50;1.10;;;17.40;81.20;;;;;;5047841;28;20475;-77
2022/05/30 08:23:35;;;;;;;1.50;1.00;;;17.60;81.00;;;;;;5054763;28;20463;-80
2022/05/30 08:26:02;;;;;;;1.50;0.90;;;17.90;80.80;;;;;;5050706;28;21024;-76
2022/05/30 08:28:29;;;;;;;1.50;0.90;;;18.10;77.70;;;;;;5048326;28;20461;-77
2022/05/30 08:30:57;;;;;;;1.50;1.20;;;18.10;79.30;;;;;;5053252;28;20922;-77
2022/05/30 08:33:24;;;;;;;1.47;0.90;;;18.00;78.70;;;;;;5052966;28;20474;-78
2022/05/30 08:35:59;;;;;;;1.80;1.40;;;17.90;79.00;;;;;;5044273;28;20611;-78
2022/05/30 08:38:26;;;;;;;1.50;0.90;;;17.80;80.10;;;;;;5042529;28;20486;-78
2022/05/30 08:43:41;;;;;;;1.50;0.90;;;17.60;79.60;;;;;;5047429;28;20540;-77
2022/05/30 08:46:13;;;;;;;1.50;0.90;;;17.40;79.80;;;;;;5040992;28;20568;-79
2022/05/30 08:48:45;;;;;;;1.50;0.90;;;17.20;80.00;;;;;;5037930;28;20830;-79
2022/05/30 08:51:42;;;;;;;1.40;0.90;;;17.10;81.50;;;;;;5042939;28;20908;-78
2022/05/30 08:54:29;;;;;;;1.47;0.90;;;17.00;81.50;;;;;;5049349;28;20514;-77
2022/05/30 08:56:59;;;;;;;1.43;0.90;;;16.90;80.60;;;;;;5035590;28;20517;-77
2022/05/30 08:59:44;;;;;;;1.60;1.30;;;16.90;81.80;;;;;;5042520;28;20497;-77
2022/05/30 09:02:21;;;;;;;1.47;0.90;;;17.00;80.60;;;;;;5022836;28;21297;-76
2022/05/30 09:04:52;;;;;;;1.40;0.90;;;17.00;80.70;;;;;;5043168;28;20578;-78
2022/05/30 09:07:22;;;;;;;1.50;1.00;;;17.00;80.30;;;;;;5025317;28;20510;-77
2022/05/30 09:09:53;;;;;;;1.47;0.90;;;17.00;80.50;;;;;;5045265;28;20472;-78
2022/05/30 09:12:30;;;;;;;1.43;0.90;;;17.10;82.40;;;;;;5021434;28;20557;-78
2022/05/30 09:15:01;;;;;;;1.50;0.90;;;17.20;81.10;;;;;;5051342;28;20500;-76
2022/05/30 09:17:36;;;;;;;1.40;0.90;;;17.30;81.20;;;;;;5023565;28;21031;-77
2022/05/30 09:20:05;;;;;;;1.43;0.90;;;17.30;80.10;;;;;;5053081;28;20868;-76
2022/05/30 09:22:32;;;;;;;1.43;0.90;;;17.40;79.30;;;;;;5028994;28;20494;-76
2022/05/30 09:27:44;;;;;;;1.50;1.00;;;17.60;80.60;;;;;;5019484;28;20585;-77
2022/05/30 09:30:17;;;;;;;1.50;0.90;;;17.80;79.10;;;;;;5054022;28;20457;-77
2022/05/30 09:32:54;;;;;;;1.43;0.90;;;17.90;77.70;;;;;;5033550;28;20565;-77
2022/05/30 09:35:26;;;;;;;1.50;0.97;;;17.90;77.90;;;;;;5051135;28;20482;-77
2022/05/30 09:38:09;;;;;;;1.47;0.90;;;18.00;79.20;;;;;;5034177;28;21048;-75
2022/05/30 09:40:42;;;;;;;1.47;0.90;;;18.10;78.70;;;;;;5047212;28;20453;-77
2022/05/30 09:43:12;;;;;;;1.47;0.90;;;18.10;78.30;;;;;;5047316;28;20494;-77
2022/05/30 09:45:38;;;;;;;1.50;1.00;;;18.10;79.50;;;;;;5055830;28;20992;-78
2022/05/30 09:48:12;;;;;;;1.50;0.90;;;18.10;79.20;;;;;;5028867;28;20487;-77
2022/05/30 09:50:44;;;;;;;1.47;0.90;;;18.00;78.50;;;;;;5058892;28;20469;-78
2022/05/30 09:53:11;;;;;;;1.47;0.90;;;18.00;78.50;;;;;;5038066;28;20482;-77
2022/05/30 09:55:45;;;;;;;1.47;0.90;;;17.90;78.90;;;;;;5058028;28;20784;-77
2022/05/30 09:58:12;;;;;;;1.47;0.90;;;17.90;78.70;;;;;;5049294;28;20470;-77
2022/05/30 10:00:49;;;;;;;1.50;0.90;;;17.80;77.50;;;;;;5049238;28;20489;-78
2022/05/30 10:03:29;;;;;;;1.47;0.90;;;17.90;78.10;;;;;;5030036;28;20569;-77
2022/05/30 10:06:14;;;;;;;1.40;0.90;;;17.90;77.70;;;;;;5056783;28;20481;-77
2022/05/30 10:08:40;;;;;;;1.43;0.90;;;18.00;78.90;;;;;;5055290;28;20465;-77
2022/05/30 10:11:08;;;;;;;1.50;1.00;;;18.00;78.20;;;;;;5057421;28;20472;-78
2022/05/30 10:13:37;;;;;;;1.50;0.90;;;18.10;78.10;;;;;;5054076;28;20973;-77
2022/05/30 10:16:07;;;;;;;1.43;0.90;;;18.00;77.10;;;;;;5037755;28;20481;-77
2022/05/30 10:18:40;;;;;;;1.43;0.90;;;18.00;77.10;;;;;;5046900;28;20465;-77
2022/05/30 10:21:20;;;;;;;1.40;0.90;;;18.10;78.50;;;;;;5033968;28;20551;-77
2022/05/30 10:30:07;;;;;;;1.50;0.90;;;18.20;74.20;;;;;;5049790;28;20556;-78
2022/05/30 10:32:42;;;;;;;1.50;0.97;;;18.20;73.60;;;;;;5034530;28;20968;-78
2022/05/30 10:35:21;;;;;;;1.50;0.90;;;18.50;75.50;;;;;;5048100;28;20513;-78
2022/05/30 10:38:05;;;;;;;1.50;0.90;;;18.80;74.50;;;;;;5029614;28;20529;-78
2022/05/30 10:40:42;;;;;;;1.43;0.90;;;19.50;74.00;;;;;;5047287;28;20864;-75
2022/05/30 10:43:12;;;;;;;1.50;0.90;;;20.20;72.40;;;;;;5040298;28;20540;-78
2022/05/30 10:45:45;;;;;;;1.50;0.90;;;20.70;70.20;;;;;;5058706;28;20486;-78
2022/05/30 10:48:21;;;;;;;1.50;0.90;;;21.00;71.20;;;;;;5026923;28;20916;-78
2022/05/30 10:50:56;;;;;;;1.50;0.83;;;21.30;72.50;;;;;;5045243;28;20462;-78
2022/05/30 10:53:40;;;;;;;1.47;0.90;;;21.20;69.70;;;;;;5036606;28;20477;-78
2022/05/30 10:56:17;;;;;;;1.50;0.90;;;20.80;69.50;;;;;;5039557;28;20799;-78
2022/05/30 10:58:49;;;;;;;1.43;0.90;;;20.50;69.60;;;;;;5053646;28;20922;-78
2022/05/30 11:01:29;;;;;;;1.43;0.80;;;20.20;71.40;;;;;;5050471;28;20550;-78
2022/05/30 11:04:13;;;;;;;1.47;0.90;;;20.00;71.80;;;;;;5048576;28;20835;-78
2022/05/30 11:06:45;;;;;;;1.43;0.90;;;19.70;70.70;;;;;;5057408;28;20490;-78
2022/05/30 11:09:19;;;;;;;1.47;0.90;;;19.50;71.90;;;;;;5051917;28;20638;-76
2022/05/30 11:11:52;;;;;;;1.47;0.90;;;19.40;71.20;;;;;;5045677;28;20466;-77
2022/05/30 11:14:28;;;;;;;1.47;0.90;;;19.10;70.20;;;;;;5052998;28;20831;-78
2022/05/30 11:16:59;;;;;;;1.50;0.90;;;18.90;70.40;;;;;;5028757;28;20527;-78
2022/05/30 11:19:34;;;;;;;1.47;0.90;;;18.80;71.30;;;;;;5035326;28;20493;-78
2022/05/30 11:22:11;;;;;;;1.43;0.90;;;18.70;73.40;;;;;;5056808;28;20964;-77
2022/05/30 11:24:38;;;;;;;1.50;0.90;;;18.80;72.60;;;;;;5056491;28;20461;-78
2022/05/30 11:27:19;;;;;;;1.47;0.90;;;18.80;73.90;;;;;;5047796;28;20873;-78
2022/05/30 11:30:06;;;;;;;1.43;0.90;;;18.90;73.30;;;;;;5044483;28;21009;-78
2022/05/30 11:33:17;;;;;;;1.47;0.90;;;19.00;73.70;;;;;;5022937;28;20487;-77
2022/05/30 11:35:54;;;;;;;1.50;0.90;;;19.10;71.60;;;;;;4975734;28;20742;-78
2022/05/30 11:38:45;;;;;;;1.50;0.90;;;19.30;72.80;;;;;;5038831;28;20473;-78
2022/05/30 11:41:23;;;;;;;1.47;0.90;;;19.70;71.30;;;;;;5029858;28;20497;-78
2022/05/30 11:44:10;;;;;;;1.50;0.90;;;20.00;72.80;;;;;;5040921;28;20927;-78
2022/05/30 11:46:46;;;;;;;1.47;0.90;;;20.40;70.60;;;;;;5033662;28;20500;-77
2022/05/30 11:49:24;;;;;;;1.40;0.90;;;20.60;69.20;;;;;;5042742;28;20882;-76
2022/05/30 11:52:00;;;;;;;1.43;0.90;;;20.70;68.90;;;;;;5025275;28;20490;-76
2022/05/30 11:54:48;;;;;;;1.50;0.90;;;20.70;70.60;;;;;;5044194;28;21084;-76
2022/05/30 11:57:24;;;;;;;1.47;0.90;;;20.60;69.00;;;;;;5026762;28;20521;-77
2022/05/30 12:00:09;;;;;;;1.47;0.90;;;20.40;69.30;;;;;;5047835;28;20485;-78
2022/05/30 12:02:56;;;;;;;1.47;0.80;;;20.20;69.40;;;;;;5025543;28;20492;-78
2022/05/30 12:05:54;;;;;;;1.47;0.90;;;20.10;70.90;;;;;;5053389;28;20914;-77
2022/05/30 12:08:41;;;;;;;1.47;0.90;;;19.90;70.60;;;;;;5021887;28;20468;-76
2022/05/30 12:11:40;;;;;;;1.50;0.90;;;19.70;71.00;;;;;;5039145;28;20480;-76
2022/05/30 12:14:25;;;;;;;1.47;0.90;;;19.40;71.00;;;;;;5048715;28;20970;-77
2022/05/30 12:17:02;;;;;;;1.47;0.90;;;19.20;70.70;;;;;;5035697;28;20640;-77
2022/05/30 12:25:55;;;;;;;1.43;0.90;;;18.80;72.70;;;;;;5045615;28;20543;-76
2022/05/30 12:28:54;;;;;;;1.47;0.90;;;18.80;73.60;;;;;;5054540;28;20469;-76
2022/05/30 12:31:40;;;;;;;1.50;0.90;;;18.80;73.60;;;;;;5036088;28;21030;-76
2022/05/30 12:34:08;;;;;;;1.43;0.90;;;18.70;71.70;;;;;;5047222;28;20550;-75
2022/05/30 12:36:50;;;;;;;1.43;0.90;;;18.50;72.30;;;;;;5038514;28;20496;-77
2022/05/30 12:39:38;;;;;;;1.47;0.90;;;18.50;72.20;;;;;;5037580;28;20485;-76
2022/05/30 12:42:08;;;;;;;1.50;0.90;;;18.50;73.60;;;;;;5032647;28;20492;-76
2022/05/30 12:44:51;;;;;;;1.43;0.90;;;18.70;72.70;;;;;;5041668;28;20490;-77
2022/05/30 12:47:30;;;;;;;1.47;0.90;;;18.80;72.60;;;;;;5029019;28;20490;-77
2022/05/30 12:50:33;;;;;;;1.47;0.90;;;19.00;74.50;;;;;;5046855;28;20453;-77
2022/05/30 12:53:03;;;;;;;1.50;0.90;;;19.10;70.70;;;;;;5027100;28;20848;-77
2022/05/30 12:55:35;;;;;;;1.50;0.90;;;19.30;69.80;;;;;;5056608;28;20482;-77
2022/05/30 12:58:03;;;;;;;1.50;0.90;;;19.40;71.40;;;;;;5035584;28;20489;-78
2022/05/30 13:00:51;;;;;;;1.50;0.90;;;19.50;70.90;;;;;;5057018;28;20490;-77
2022/05/30 13:03:36;;;;;;;1.47;0.90;;;19.60;70.40;;;;;;5030305;28;20490;-78
2022/05/30 13:06:13;;;;;;;1.47;0.90;;;19.60;69.30;;;;;;5040082;28;20484;-76
2022/05/30 13:09:06;;;;;;;1.47;0.90;;;19.60;70.40;;;;;;5046214;28;20572;-78
2022/05/30 13:11:58;;;;;;;1.43;0.90;;;19.60;70.90;;;;;;5034338;28;20516;-77
2022/05/30 13:14:36;;;;;;;1.50;0.90;;;19.70;70.00;;;;;;5043648;28;20465;-77
2022/05/30 13:17:22;;;;;;;1.43;0.90;;;19.70;70.20;;;;;;5034655;28;20488;-76
2022/05/30 13:19:53;;;;;;;1.43;0.90;;;19.80;70.10;;;;;;5048932;28;21537;-77
2022/05/30 13:22:23;;;;;;;1.50;0.90;;;19.80;67.90;;;;;;5039526;28;20485;-77
2022/05/30 13:24:50;;;;;;;1.47;0.90;;;19.80;68.20;;;;;;5052337;28;21325;-78
2022/05/30 13:27:16;;;;;;;1.43;0.90;;;19.70;67.80;;;;;;5054665;28;20450;-78
2022/05/30 13:29:43;;;;;;;1.50;1.00;;;19.70;68.60;;;;;;5050924;28;20469;-78
2022/05/30 13:32:15;;;;;;;1.47;0.90;;;19.70;68.20;;;;;;5037070;28;20506;-78
2022/05/30 13:34:48;;;;;;;1.47;0.90;;;19.60;67.70;;;;;;5047093;28;20465;-78
2022/05/30 13:37:22;;;;;;;1.47;0.90;;;19.40;68.00;;;;;;5033468;28;21291;-78